QTR774 SBGR-OTHH
Flight info
| Callsign | QTR774 |
|---|---|
| Flight time | N/A |
| Altitude | 29000 |
| Route | UREMI UZ42 IMDAB/N0491F310 UZ42 CXI UL340 ADA UZ48 TOSIV/M083F310 UZ50 GELAM/N0496F310 DCT 19S035W 1800S03230W 17S030W 1530S02730W 14S025W 1230S02230W/M083F330 11S020W 0930S01730W 08S015W 0622S01200W/ 05S010W 01S005W 03N000E DCT GANBI/N0496F330 UY252 TYE UL433 LAG UR778 IBA/N0486F350 UR778 TONBA/N0478F370 R778 DITAR M999 LXR L604 WEJ M872 BDB Y214 ASPUS/N0442F290 Y432 LADBO T142 LAEEB |
| Aircraft | B77L/H-SDE1E3FGHIJ5M1P2RWXYZ/LB1D1 |
Departure
| Time | 2026-05-05 21:07 |
|---|---|
| Airport | São Paulo/Guarulhos–Governor André Franco Montoro International Airport (SBGR) |
Arrival
| Time | N/A |
|---|---|
| Airport | Hamad International Airport (OTHH) |
| Time | Latitude | Longitude | Altitude | Speed | Heading |
|---|---|---|---|---|---|
| 2026-05-05 20:27 | -23.42747 | -46.47266 | 2473 ft | 0 kts | 253° |
| 2026-05-05 20:57 | -23.42741 | -46.47246 | 2469 ft | 4 kts | 253° |
| 2026-05-05 20:57 | -23.42734 | -46.47218 | 2471 ft | 3 kts | 252° |
| 2026-05-05 20:57 | -23.42726 | -46.47195 | 2470 ft | 4 kts | 238° |
| 2026-05-05 20:57 | -23.42708 | -46.47175 | 2470 ft | 4 kts | 204° |
| 2026-05-05 20:58 | -23.42684 | -46.47171 | 2469 ft | 4 kts | 165° |
| 2026-05-05 20:58 | -23.42659 | -46.47178 | 2470 ft | 4 kts | 164° |
| 2026-05-05 20:58 | -23.42644 | -46.47183 | 2469 ft | 0 kts | 163° |
| 2026-05-05 21:00 | -23.42655 | -46.47180 | 2473 ft | 2 kts | 164° |
| 2026-05-05 21:00 | -23.42671 | -46.47175 | 2475 ft | 3 kts | 165° |
| 2026-05-05 21:00 | -23.42692 | -46.47168 | 2471 ft | 3 kts | 163° |
| 2026-05-05 21:01 | -23.42740 | -46.47153 | 2472 ft | 9 kts | 163° |
| 2026-05-05 21:01 | -23.42800 | -46.47133 | 2473 ft | 9 kts | 164° |
| 2026-05-05 21:01 | -23.42844 | -46.47148 | 2472 ft | 5 kts | 226° |
| 2026-05-05 21:01 | -23.42858 | -46.47182 | 2469 ft | 6 kts | 251° |
| 2026-05-05 21:02 | -23.42878 | -46.47249 | 2470 ft | 12 kts | 252° |
| 2026-05-05 21:02 | -23.42906 | -46.47356 | 2468 ft | 17 kts | 254° |
| 2026-05-05 21:02 | -23.42940 | -46.47484 | 2471 ft | 18 kts | 253° |
| 2026-05-05 21:02 | -23.42975 | -46.47612 | 2470 ft | 18 kts | 253° |
| 2026-05-05 21:03 | -23.43009 | -46.47739 | 2472 ft | 18 kts | 253° |
| 2026-05-05 21:03 | -23.43044 | -46.47867 | 2470 ft | 18 kts | 253° |
| 2026-05-05 21:03 | -23.43079 | -46.47995 | 2471 ft | 18 kts | 253° |
| 2026-05-05 21:03 | -23.43113 | -46.48122 | 2473 ft | 18 kts | 254° |
| 2026-05-05 21:04 | -23.43147 | -46.48250 | 2474 ft | 18 kts | 253° |
| 2026-05-05 21:04 | -23.43171 | -46.48339 | 2474 ft | 8 kts | 253° |
| 2026-05-05 21:04 | -23.43197 | -46.48391 | 2472 ft | 8 kts | 211° |
| 2026-05-05 21:04 | -23.43252 | -46.48381 | 2473 ft | 8 kts | 162° |
| 2026-05-05 21:05 | -23.43288 | -46.48369 | 2476 ft | 8 kts | 162° |
| 2026-05-05 21:05 | -23.43352 | -46.48348 | 2471 ft | 12 kts | 163° |
| 2026-05-05 21:05 | -23.43408 | -46.48324 | 2470 ft | 8 kts | 142° |
| 2026-05-05 21:05 | -23.43411 | -46.48266 | 2470 ft | 8 kts | 74° |
| 2026-05-05 21:06 | -23.43380 | -46.48154 | 2469 ft | 30 kts | 73° |
| 2026-05-05 21:06 | -23.43250 | -46.47676 | 2466 ft | 103 kts | 73° |
| 2026-05-05 21:06 | -23.42978 | -46.46673 | 2472 ft | 171 kts | 73° |
| 2026-05-05 21:06 | -23.42615 | -46.45261 | 2731 ft | 198 kts | 73° |
| 2026-05-05 21:07 | -23.42242 | -46.43830 | 3399 ft | 199 kts | 73° |
| 2026-05-05 21:07 | -23.41810 | -46.42371 | 3985 ft | 204 kts | 73° |
| 2026-05-05 21:07 | -23.41364 | -46.40903 | 4710 ft | 205 kts | 73° |
| 2026-05-05 21:07 | -23.40919 | -46.39429 | 5424 ft | 206 kts | 73° |
| 2026-05-05 21:08 | -23.40461 | -46.37907 | 5946 ft | 223 kts | 73° |
| 2026-05-05 21:08 | -23.40170 | -46.36181 | 6188 ft | 240 kts | 93° |
| 2026-05-05 21:08 | -23.40479 | -46.34345 | 6334 ft | 255 kts | 109° |
| 2026-05-05 21:08 | -23.41105 | -46.32468 | 6557 ft | 272 kts | 111° |
| 2026-05-05 21:09 | -23.41788 | -46.30512 | 6976 ft | 280 kts | 110° |
| 2026-05-05 21:09 | -23.42471 | -46.28498 | 7496 ft | 285 kts | 110° |
| 2026-05-05 21:09 | -23.43145 | -46.26466 | 8134 ft | 286 kts | 110° |
| 2026-05-05 21:09 | -23.43815 | -46.24420 | 8754 ft | 287 kts | 108° |
| 2026-05-05 21:10 | -23.44317 | -46.22296 | 9272 ft | 292 kts | 101° |
| 2026-05-05 21:10 | -23.44684 | -46.20106 | 9856 ft | 296 kts | 100° |
| 2026-05-05 21:10 | -23.45032 | -46.17893 | 10426 ft | 298 kts | 100° |
| 2026-05-05 21:10 | -23.45395 | -46.15614 | 10644 ft | 315 kts | 100° |
| 2026-05-05 21:11 | -23.45793 | -46.13195 | 10795 ft | 334 kts | 101° |
| 2026-05-05 21:11 | -23.46224 | -46.10637 | 10938 ft | 353 kts | 101° |
| 2026-05-05 21:11 | -23.46684 | -46.07944 | 11166 ft | 369 kts | 101° |
| 2026-05-05 21:11 | -23.47163 | -46.05162 | 11581 ft | 379 kts | 101° |
| 2026-05-05 21:12 | -23.47653 | -46.02320 | 12090 ft | 385 kts | 101° |
| 2026-05-05 21:12 | -23.48151 | -45.99439 | 12709 ft | 388 kts | 101° |
| 2026-05-05 21:12 | -23.48652 | -45.96539 | 13338 ft | 391 kts | 101° |
| 2026-05-05 21:12 | -23.49077 | -45.93611 | 13860 ft | 394 kts | 92° |
| 2026-05-05 21:13 | -23.48744 | -45.90647 | 14207 ft | 397 kts | 73° |
| 2026-05-05 21:13 | -23.47945 | -45.87752 | 14600 ft | 402 kts | 74° |
| 2026-05-05 21:13 | -23.47176 | -45.84810 | 15138 ft | 405 kts | 75° |
| 2026-05-05 21:13 | -23.46429 | -45.81850 | 15717 ft | 406 kts | 75° |
| 2026-05-05 21:14 | -23.45690 | -45.78869 | 16253 ft | 409 kts | 75° |
| 2026-05-05 21:14 | -23.44950 | -45.75863 | 16742 ft | 412 kts | 75° |
| 2026-05-05 21:14 | -23.44209 | -45.72842 | 17314 ft | 414 kts | 75° |
| 2026-05-05 21:14 | -23.43463 | -45.69802 | 17812 ft | 417 kts | 75° |
| 2026-05-05 21:15 | -23.42710 | -45.66741 | 18313 ft | 420 kts | 75° |
| 2026-05-05 21:15 | -23.41950 | -45.63657 | 18731 ft | 423 kts | 75° |
| 2026-05-05 21:15 | -23.41184 | -45.60551 | 19134 ft | 426 kts | 75° |
| 2026-05-05 21:15 | -23.40412 | -45.57422 | 19517 ft | 430 kts | 75° |
| 2026-05-05 21:16 | -23.39633 | -45.54265 | 19924 ft | 433 kts | 76° |
| 2026-05-05 21:16 | -23.38848 | -45.51093 | 20331 ft | 436 kts | 76° |
| 2026-05-05 21:16 | -23.38112 | -45.47878 | 20710 ft | 439 kts | 77° |
| 2026-05-05 21:16 | -23.37431 | -45.44621 | 21079 ft | 443 kts | 78° |
| 2026-05-05 21:17 | -23.36759 | -45.41340 | 21469 ft | 446 kts | 78° |
| 2026-05-05 21:17 | -23.36073 | -45.38035 | 21864 ft | 449 kts | 78° |
| 2026-05-05 21:17 | -23.35369 | -45.34710 | 22277 ft | 452 kts | 78° |
| 2026-05-05 21:17 | -23.34584 | -45.31389 | 22681 ft | 455 kts | 74° |
| 2026-05-05 21:18 | -23.33616 | -45.28103 | 23057 ft | 458 kts | 72° |
| 2026-05-05 21:18 | -23.32563 | -45.24814 | 23400 ft | 462 kts | 71° |
| 2026-05-05 21:18 | -23.31493 | -45.21511 | 23752 ft | 465 kts | 71° |
| 2026-05-05 21:18 | -23.30429 | -45.18180 | 24061 ft | 468 kts | 72° |
| 2026-05-05 21:19 | -23.29380 | -45.14822 | 24402 ft | 469 kts | 72° |
| 2026-05-05 21:19 | -23.28342 | -45.11447 | 24736 ft | 472 kts | 73° |
| 2026-05-05 21:19 | -23.27308 | -45.08054 | 25054 ft | 475 kts | 73° |
| 2026-05-05 21:19 | -23.26270 | -45.04632 | 25340 ft | 478 kts | 73° |
| 2026-05-05 21:20 | -23.25227 | -45.01189 | 25644 ft | 481 kts | 73° |
| 2026-05-05 21:20 | -23.24204 | -44.97821 | 25955 ft | 483 kts | 73° |
| 2026-05-05 21:20 | -23.23146 | -44.94342 | 26269 ft | 486 kts | 73° |
| 2026-05-05 21:20 | -23.22081 | -44.90846 | 26563 ft | 489 kts | 73° |
| 2026-05-05 21:21 | -23.21007 | -44.87329 | 26862 ft | 492 kts | 73° |
| 2026-05-05 21:21 | -23.19926 | -44.83789 | 27157 ft | 494 kts | 73° |
| 2026-05-05 21:21 | -23.18838 | -44.80234 | 27472 ft | 497 kts | 73° |
| 2026-05-05 21:21 | -23.17744 | -44.76661 | 27756 ft | 500 kts | 73° |
| 2026-05-05 21:22 | -23.16644 | -44.73068 | 28039 ft | 503 kts | 73° |
| 2026-05-05 21:22 | -23.15537 | -44.69451 | 28304 ft | 506 kts | 73° |
| 2026-05-05 21:22 | -23.14422 | -44.65817 | 28579 ft | 508 kts | 73° |
| 2026-05-05 21:22 | -23.13301 | -44.62171 | 28863 ft | 510 kts | 73° |
| 2026-05-05 21:23 | -23.12167 | -44.58506 | 29136 ft | 512 kts | 73° |
| 2026-05-05 21:23 | -23.11028 | -44.54832 | 29397 ft | 515 kts | 73° |
| 2026-05-05 21:23 | -23.09883 | -44.51138 | 29662 ft | 517 kts | 73° |
| 2026-05-05 21:23 | -23.08736 | -44.47440 | 29995 ft | 517 kts | 73° |
| 2026-05-05 21:24 | -23.07590 | -44.43748 | 30365 ft | 516 kts | 73° |
| 2026-05-05 21:24 | -23.06444 | -44.40059 | 30685 ft | 515 kts | 73° |
| 2026-05-05 21:24 | -23.05297 | -44.36368 | 30938 ft | 516 kts | 73° |
| 2026-05-05 21:24 | -23.04148 | -44.32674 | 31117 ft | 518 kts | 73° |
| 2026-05-05 21:25 | -23.01833 | -44.25239 | 31189 ft | 519 kts | 73° |
| 2026-05-05 21:25 | -22.99528 | -44.17856 | 31194 ft | 514 kts | 73° |
| 2026-05-05 21:26 | -22.97238 | -44.10533 | 31188 ft | 512 kts | 73° |